Taft, Oklahoma
Current Conditions -  °F | °C
As of 1:53 PM on Wednesday 28 Jan 2015 (Local Time) from KMKO Reporting Station
Clear Clear  
Wind Chill: 68°   Ceiling: Unl
Heat Index: 68°   Visibility: 10mi
Dew Point: 41°   Wind: 16mph
Humidity: 37%   Direction: 150°SSE
Pressure: 29.94"   Gusts: 24mph
Location:  35.76°N, 95.55°W
Report Text: KMKO 281953Z AUTO 15014G21KT 10SM CLR 20/05 A2994 RMK AO2 SLP134 T02000050
Loading
Personal Weather Stations






























Interactive Weather Map New forecast layout! Learn more

10-Day Weather Forecast

Advertisements
Track Severe Weather on mobile